createdAt,value
2023-10-06T00:01:28.538Z,15.40
2023-10-06T00:04:53.144Z,15.29
2023-10-06T00:08:21.298Z,15.26
2023-10-06T00:11:47.244Z,15.36
2023-10-06T00:15:24.090Z,15.40
2023-10-06T00:18:47.672Z,15.44
2023-10-06T00:22:19.219Z,15.47
2023-10-06T00:25:43.763Z,15.40
2023-10-06T00:29:11.354Z,15.37
2023-10-06T00:32:33.437Z,15.36
2023-10-06T00:35:58.271Z,15.35
2023-10-06T00:39:24.506Z,15.30
2023-10-06T00:43:00.869Z,15.26
2023-10-06T00:46:27.133Z,15.22
2023-10-06T00:49:48.997Z,15.25
2023-10-06T00:53:16.630Z,15.19
2023-10-06T00:56:43.674Z,15.08
2023-10-06T01:00:37.725Z,14.95
2023-10-06T01:04:09.468Z,14.82
2023-10-06T01:07:31.162Z,14.74
2023-10-06T01:11:07.906Z,14.57
2023-10-06T01:14:30.264Z,14.51
2023-10-06T01:17:56.525Z,14.57
2023-10-06T01:21:19.082Z,14.43
2023-10-06T01:24:41.183Z,14.43
2023-10-06T01:28:06.841Z,14.38
2023-10-06T01:31:30.932Z,14.34
2023-10-06T01:34:54.678Z,14.22
2023-10-06T01:38:23.926Z,14.19
2023-10-06T01:41:48.718Z,14.24
2023-10-06T01:45:15.350Z,14.27
2023-10-06T01:48:40.079Z,14.33
2023-10-06T01:52:09.444Z,14.43
2023-10-06T01:55:37.902Z,14.45
2023-10-06T01:59:02.858Z,14.47
2023-10-06T02:02:25.713Z,14.48
2023-10-06T02:05:47.362Z,14.50
2023-10-06T02:09:20.744Z,14.41
2023-10-06T02:12:43.193Z,14.36
2023-10-06T02:16:05.852Z,14.26
2023-10-06T02:19:30.056Z,14.26
2023-10-06T02:22:59.367Z,14.12
2023-10-06T02:26:24.783Z,13.95
2023-10-06T02:29:46.766Z,13.75
2023-10-06T02:33:08.437Z,13.62
2023-10-06T02:36:32.218Z,13.41
2023-10-06T02:39:54.269Z,13.33
2023-10-06T02:43:21.796Z,13.27
2023-10-06T02:46:46.694Z,13.31
2023-10-06T02:50:13.965Z,13.40
2023-10-06T02:53:37.671Z,13.44
2023-10-06T02:56:59.346Z,13.51
2023-10-06T03:00:26.984Z,13.55
2023-10-06T03:03:52.649Z,13.57
2023-10-06T03:07:16.411Z,13.50
2023-10-06T03:10:45.425Z,13.54
2023-10-06T03:14:08.801Z,13.54
2023-10-06T03:17:31.842Z,13.58
2023-10-06T03:21:05.320Z,13.61
2023-10-06T03:24:32.755Z,13.65
2023-10-06T03:27:55.652Z,13.61
2023-10-06T03:31:20.114Z,13.57
2023-10-06T03:34:44.765Z,13.50
2023-10-06T03:38:14.402Z,13.51
2023-10-06T03:41:38.398Z,13.54
2023-10-06T03:45:08.722Z,13.54
2023-10-06T03:48:30.894Z,13.59
2023-10-06T03:51:56.926Z,13.66
2023-10-06T03:55:21.001Z,13.71
2023-10-06T03:58:46.207Z,13.75
2023-10-06T04:02:09.951Z,13.81
2023-10-06T04:05:38.436Z,13.79
2023-10-06T04:09:00.765Z,13.81
2023-10-06T04:12:24.693Z,13.83
2023-10-06T04:15:53.549Z,13.83
2023-10-06T04:19:16.792Z,13.83
2023-10-06T04:22:40.864Z,13.82
2023-10-06T04:26:02.737Z,13.81
2023-10-06T04:29:27.151Z,13.85
2023-10-06T04:32:51.015Z,13.81
2023-10-06T04:36:21.971Z,13.82
2023-10-06T04:39:44.132Z,13.79
2023-10-06T04:43:08.755Z,13.81
2023-10-06T04:46:30.456Z,13.75
2023-10-06T04:49:54.046Z,13.76
2023-10-06T04:53:18.176Z,13.82
2023-10-06T04:56:42.250Z,13.85
2023-10-06T05:00:07.646Z,13.86
2023-10-06T05:03:47.738Z,13.87
2023-10-06T05:07:12.031Z,13.96
2023-10-06T05:10:34.077Z,13.90
2023-10-06T05:13:56.729Z,13.93
2023-10-06T05:17:23.509Z,13.96
2023-10-06T05:20:45.262Z,14.02
2023-10-06T05:24:09.889Z,13.99
2023-10-06T05:27:31.645Z,14.03
2023-10-06T05:30:55.699Z,14.13
2023-10-06T05:34:18.830Z,14.20
2023-10-06T05:37:44.459Z,14.13
2023-10-06T05:41:13.626Z,14.14
2023-10-06T05:44:38.400Z,14.19
2023-10-06T05:48:00.304Z,14.22
2023-10-06T05:51:24.343Z,14.23
2023-10-06T05:54:46.108Z,14.24
2023-10-06T05:58:27.355Z,14.29
2023-10-06T06:01:57.717Z,14.36
2023-10-06T06:05:19.392Z,14.40
2023-10-06T06:08:49.488Z,14.51
2023-10-06T06:12:12.987Z,14.57
2023-10-06T06:15:36.514Z,14.63
2023-10-06T06:18:58.126Z,14.65
2023-10-06T06:22:20.517Z,14.61
2023-10-06T06:25:43.511Z,14.57
2023-10-06T06:29:09.985Z,14.57
2023-10-06T06:32:31.962Z,14.58
2023-10-06T06:35:53.676Z,14.65
2023-10-06T06:39:15.492Z,14.65
2023-10-06T06:42:37.850Z,14.61
2023-10-06T06:46:02.268Z,14.82
2023-10-06T06:49:24.790Z,14.89
2023-10-06T06:52:50.882Z,15.05
2023-10-06T06:56:12.834Z,15.08
2023-10-06T06:59:40.291Z,15.12
2023-10-06T07:03:02.484Z,15.12
2023-10-06T07:06:26.363Z,15.16
2023-10-06T07:09:48.165Z,15.39
2023-10-06T07:13:11.968Z,15.50
2023-10-06T07:16:35.060Z,15.58
2023-10-06T07:20:02.075Z,15.87
2023-10-06T07:23:26.124Z,16.08
2023-10-06T07:26:47.745Z,16.29
2023-10-06T07:30:12.198Z,17.07
2023-10-06T07:33:33.831Z,17.77
2023-10-06T07:36:55.512Z,18.11
2023-10-06T07:40:22.553Z,18.31
2023-10-06T07:43:47.435Z,19.27
2023-10-06T07:47:11.976Z,19.86
2023-10-06T07:50:39.692Z,20.47
2023-10-06T07:54:07.849Z,20.52
2023-10-06T07:57:34.124Z,21.02
2023-10-06T08:00:57.987Z,21.40
2023-10-06T08:04:24.079Z,21.03
2023-10-06T08:07:45.979Z,20.94
2023-10-06T08:11:10.805Z,21.15
2023-10-06T08:14:33.597Z,20.89
2023-10-06T08:17:55.265Z,20.27
2023-10-06T08:21:16.873Z,20.67
2023-10-06T08:24:41.553Z,20.05
2023-10-06T08:28:08.446Z,20.78
2023-10-06T08:31:30.566Z,21.12
2023-10-06T08:34:54.622Z,20.91
2023-10-06T08:38:18.492Z,21.16
2023-10-06T08:41:48.654Z,20.50
2023-10-06T08:45:14.982Z,21.06
2023-10-06T08:48:37.386Z,21.12
2023-10-06T08:52:02.653Z,20.44
2023-10-06T08:55:28.945Z,20.77
2023-10-06T08:58:54.681Z,21.10
2023-10-06T09:02:18.256Z,21.80
2023-10-06T09:05:40.797Z,21.75
2023-10-06T09:09:03.417Z,21.87
2023-10-06T09:12:26.828Z,21.80
2023-10-06T09:16:04.077Z,21.91
2023-10-06T09:19:29.069Z,22.52
2023-10-06T09:22:53.052Z,21.92
2023-10-06T09:26:32.591Z,21.33
2023-10-06T09:30:02.042Z,21.32
2023-10-06T09:33:39.268Z,21.53
2023-10-06T09:37:20.778Z,20.72
2023-10-06T09:40:48.639Z,20.99
2023-10-06T09:44:14.544Z,21.22
2023-10-06T09:47:41.564Z,21.92
2023-10-06T09:51:11.050Z,22.59
2023-10-06T09:54:34.247Z,22.79
2023-10-06T09:57:56.910Z,23.41
2023-10-06T10:01:25.689Z,23.66
2023-10-06T10:04:48.084Z,23.18
2023-10-06T10:08:15.026Z,24.31
2023-10-06T10:11:40.641Z,24.03
2023-10-06T10:15:23.031Z,23.77
2023-10-06T10:18:58.564Z,24.65
2023-10-06T10:22:22.579Z,25.60
2023-10-06T10:25:45.254Z,26.23
2023-10-06T10:29:19.075Z,26.57
2023-10-06T10:32:53.166Z,26.71
2023-10-06T10:36:18.741Z,26.95
2023-10-06T10:39:50.841Z,26.47
2023-10-06T10:43:13.893Z,25.58
2023-10-06T10:46:43.722Z,23.87
2023-10-06T10:50:08.398Z,23.52
2023-10-06T10:53:32.924Z,24.37
2023-10-06T10:57:02.801Z,24.21
2023-10-06T11:00:27.219Z,24.96
2023-10-06T11:04:19.770Z,26.06
2023-10-06T11:07:43.221Z,26.71
2023-10-06T11:11:11.553Z,27.09
2023-10-06T11:14:44.531Z,27.42
2023-10-06T11:18:07.519Z,27.47
2023-10-06T11:21:29.292Z,27.33
2023-10-06T11:24:58.514Z,27.45
2023-10-06T11:28:21.164Z,27.56
2023-10-06T11:31:44.301Z,26.65
2023-10-06T11:35:06.172Z,25.89
2023-10-06T11:38:29.101Z,26.92
2023-10-06T11:42:13.453Z,27.43
2023-10-06T11:45:38.197Z,27.76
2023-10-06T11:49:11.253Z,27.43
2023-10-06T11:52:33.511Z,26.36
2023-10-06T11:56:12.078Z,26.23
2023-10-06T11:59:36.487Z,24.83
2023-10-06T12:03:01.817Z,25.53
2023-10-06T12:06:25.024Z,26.54
2023-10-06T12:09:49.961Z,26.68
2023-10-06T12:13:13.894Z,26.35
2023-10-06T12:16:37.934Z,24.95
2023-10-06T12:20:01.715Z,26.05
2023-10-06T12:23:25.170Z,26.64
2023-10-06T12:26:49.414Z,26.81
2023-10-06T12:30:15.599Z,27.02
2023-10-06T12:33:42.970Z,27.04
2023-10-06T12:37:08.653Z,25.62
2023-10-06T12:40:31.140Z,24.30
2023-10-06T12:43:55.008Z,23.63
2023-10-06T12:47:16.721Z,23.73
2023-10-06T12:50:46.182Z,23.44
2023-10-06T12:54:10.841Z,23.29
2023-10-06T12:57:36.094Z,23.12
2023-10-06T13:00:57.989Z,23.48
2023-10-06T13:04:24.045Z,23.66
2023-10-06T13:07:49.848Z,23.99
2023-10-06T13:11:19.355Z,23.93
2023-10-06T13:14:43.851Z,23.94
2023-10-06T13:18:09.213Z,24.14
2023-10-06T13:21:38.024Z,23.80
2023-10-06T13:24:59.957Z,23.66
2023-10-06T13:28:22.102Z,23.22
2023-10-06T13:31:43.795Z,22.93
2023-10-06T13:35:12.656Z,23.19
2023-10-06T13:38:36.887Z,23.22
2023-10-06T13:42:02.996Z,23.01
2023-10-06T13:45:26.503Z,23.01
2023-10-06T13:48:48.358Z,23.15
2023-10-06T13:52:11.249Z,23.15
2023-10-06T13:55:33.573Z,22.91
2023-10-06T13:58:57.850Z,22.60
2023-10-06T14:02:19.610Z,22.63
2023-10-06T14:05:43.665Z,22.55
2023-10-06T14:09:07.175Z,22.18
2023-10-06T14:12:31.272Z,22.22
2023-10-06T14:15:57.204Z,22.12
2023-10-06T14:19:22.154Z,22.23
2023-10-06T14:22:43.762Z,22.21
2023-10-06T14:26:10.610Z,22.50
2023-10-06T14:29:34.907Z,22.38
2023-10-06T14:33:13.658Z,22.31
2023-10-06T14:36:39.185Z,22.31
2023-10-06T14:40:21.474Z,22.23
2023-10-06T14:44:11.817Z,22.39
2023-10-06T14:47:34.268Z,22.50
2023-10-06T14:51:06.021Z,22.63
2023-10-06T14:54:34.175Z,22.86
2023-10-06T14:57:56.438Z,22.57
2023-10-06T15:01:21.031Z,22.09
2023-10-06T15:04:42.902Z,22.05
2023-10-06T15:08:05.340Z,21.98
2023-10-06T15:11:29.747Z,21.73
2023-10-06T15:14:56.219Z,21.68
2023-10-06T15:18:19.966Z,21.77
2023-10-06T15:21:46.022Z,21.95
2023-10-06T15:25:11.967Z,22.08
2023-10-06T15:28:39.315Z,22.26
2023-10-06T15:32:05.216Z,22.38
2023-10-06T15:35:37.221Z,22.22
2023-10-06T15:39:01.996Z,21.94
2023-10-06T15:42:23.720Z,21.77
2023-10-06T15:45:58.093Z,21.97
2023-10-06T15:49:20.706Z,22.02
2023-10-06T15:52:47.824Z,21.97
2023-10-06T15:56:14.888Z,21.98
2023-10-06T15:59:39.109Z,21.75
2023-10-06T16:03:03.897Z,21.43
2023-10-06T16:06:33.315Z,21.18
2023-10-06T16:09:57.419Z,20.96
2023-10-06T16:13:19.803Z,20.82
2023-10-06T16:16:41.490Z,20.68
2023-10-06T16:20:07.464Z,20.57
2023-10-06T16:23:29.505Z,20.45
2023-10-06T16:26:53.720Z,20.39
2023-10-06T16:30:17.267Z,20.30
2023-10-06T16:33:44.427Z,20.13
2023-10-06T16:37:09.733Z,19.99
2023-10-06T16:40:35.029Z,19.83
2023-10-06T16:43:57.493Z,19.72
2023-10-06T16:47:19.285Z,19.61
2023-10-06T16:50:44.212Z,19.54
2023-10-06T16:54:06.125Z,19.44
2023-10-06T16:57:27.786Z,19.35
2023-10-06T17:00:49.499Z,19.24
2023-10-06T17:04:15.742Z,19.09
2023-10-06T17:07:37.723Z,18.99
2023-10-06T17:11:15.611Z,18.88
2023-10-06T17:14:41.533Z,18.90
2023-10-06T17:18:03.318Z,18.70
2023-10-06T17:21:27.698Z,18.61
2023-10-06T17:24:54.564Z,18.45
2023-10-06T17:28:18.472Z,18.30
2023-10-06T17:31:42.468Z,18.30
2023-10-06T17:35:05.158Z,18.25
2023-10-06T17:38:29.358Z,18.17
2023-10-06T17:41:53.655Z,18.08
2023-10-06T17:45:20.152Z,18.07
2023-10-06T17:48:49.305Z,18.08
2023-10-06T17:52:11.754Z,18.05
2023-10-06T17:55:35.029Z,17.90
2023-10-06T17:58:56.822Z,17.48
2023-10-06T18:02:19.719Z,17.53
2023-10-06T18:05:46.025Z,17.49
2023-10-06T18:09:10.084Z,17.53
2023-10-06T18:12:31.876Z,17.34
2023-10-06T18:15:55.982Z,17.19
2023-10-06T18:19:21.395Z,17.29
2023-10-06T18:22:43.182Z,17.22
2023-10-06T18:26:16.215Z,16.98
2023-10-06T18:29:43.095Z,16.76
2023-10-06T18:33:07.390Z,16.71
2023-10-06T18:36:32.016Z,16.69
2023-10-06T18:39:53.709Z,16.63
2023-10-06T18:43:15.435Z,16.39
2023-10-06T18:46:40.485Z,16.36
2023-10-06T18:50:02.746Z,16.23
2023-10-06T18:53:29.736Z,16.06
2023-10-06T18:56:51.441Z,16.18
2023-10-06T19:00:13.917Z,15.90
2023-10-06T19:03:39.348Z,15.68
2023-10-06T19:07:06.209Z,15.80
2023-10-06T19:10:27.929Z,16.40
2023-10-06T19:13:50.271Z,17.10
2023-10-06T19:17:12.688Z,17.62
2023-10-06T19:20:34.410Z,17.80
2023-10-06T19:23:56.318Z,17.65
2023-10-06T19:27:18.602Z,17.24
2023-10-06T19:30:40.377Z,16.85
2023-10-06T19:34:03.093Z,16.49
2023-10-06T19:37:25.363Z,16.22
2023-10-06T19:40:52.215Z,15.95
2023-10-06T19:44:14.097Z,15.71
2023-10-06T19:47:36.637Z,15.64
2023-10-06T19:51:01.006Z,15.46
2023-10-06T19:54:25.471Z,15.25
2023-10-06T19:57:47.261Z,14.84
2023-10-06T20:01:12.542Z,14.88
2023-10-06T20:04:35.211Z,14.93
2023-10-06T20:07:57.125Z,14.91
2023-10-06T20:11:20.807Z,14.64
2023-10-06T20:14:44.780Z,14.60
2023-10-06T20:18:07.797Z,14.75
2023-10-06T20:21:31.782Z,14.71
2023-10-06T20:24:55.595Z,14.61
2023-10-06T20:28:22.064Z,14.45
2023-10-06T20:31:43.910Z,14.44
2023-10-06T20:35:05.796Z,14.40
2023-10-06T20:38:27.563Z,14.29
2023-10-06T20:41:49.288Z,14.12
2023-10-06T20:45:17.168Z,14.16
2023-10-06T20:48:41.317Z,14.06
2023-10-06T20:52:03.113Z,13.79
2023-10-06T20:55:25.448Z,13.86
2023-10-06T20:58:49.115Z,13.78
2023-10-06T21:02:14.627Z,13.90
2023-10-06T21:05:38.303Z,13.55
2023-10-06T21:09:00.330Z,13.59
2023-10-06T21:12:21.988Z,13.47
2023-10-06T21:15:45.904Z,13.48
2023-10-06T21:19:08.471Z,13.75
2023-10-06T21:22:30.231Z,13.79
2023-10-06T21:25:54.291Z,13.76
2023-10-06T21:29:18.265Z,13.62
2023-10-06T21:32:40.972Z,13.54
2023-10-06T21:36:03.202Z,13.53
2023-10-06T21:39:27.106Z,13.54
2023-10-06T21:42:51.567Z,13.64
2023-10-06T21:46:22.078Z,13.36
2023-10-06T21:49:48.572Z,13.36
2023-10-06T21:53:12.972Z,13.41
2023-10-06T21:56:35.589Z,13.33
2023-10-06T21:59:58.532Z,13.02
2023-10-06T22:03:25.192Z,13.02
2023-10-06T22:06:53.390Z,12.78
2023-10-06T22:10:15.075Z,12.79
2023-10-06T22:13:36.812Z,12.37
2023-10-06T22:17:00.811Z,12.10
2023-10-06T22:20:23.244Z,11.93
2023-10-06T22:23:47.236Z,12.04
2023-10-06T22:27:11.326Z,11.63
2023-10-06T22:30:38.043Z,11.89
2023-10-06T22:33:59.900Z,12.13
2023-10-06T22:37:26.911Z,12.42
2023-10-06T22:40:48.706Z,12.63
2023-10-06T22:44:10.510Z,12.85
2023-10-06T22:47:34.036Z,12.96
2023-10-06T22:50:57.686Z,13.07
2023-10-06T22:54:19.319Z,12.96
2023-10-06T22:57:44.060Z,12.95
2023-10-06T23:01:06.713Z,12.82
2023-10-06T23:04:28.546Z,12.78
2023-10-06T23:07:53.339Z,12.73
2023-10-06T23:11:17.036Z,12.56
2023-10-06T23:14:43.592Z,12.58
2023-10-06T23:18:12.544Z,12.49
2023-10-06T23:21:36.485Z,12.59
2023-10-06T23:25:03.838Z,12.46
2023-10-06T23:28:25.603Z,12.51
2023-10-06T23:31:47.322Z,12.35
2023-10-06T23:35:09.430Z,12.30
2023-10-06T23:38:31.070Z,12.23
2023-10-06T23:41:55.119Z,12.16
2023-10-06T23:45:30.216Z,12.16
2023-10-06T23:48:54.525Z,12.04
2023-10-06T23:52:22.802Z,12.16
2023-10-06T23:55:44.498Z,11.90
2023-10-06T23:59:16.361Z,11.91
